Latest Weather Observations for Point Avoid

IDS60801

Issued at 8:21 pm CST Wednesday 19 September 2018 (issued every 10 minutes, with the page automatically refreshed every 10 minutes)

About weather observations | Map of weather stations | Latest weather observations for SA | Other Formats
Station Details ID: 018230 Name: POINT AVOID Lat: -34.67 Lon: 135.34 Height: 35.0 m
Data from the previous 72 hours. | See also: Recent months at Point Avoid
Date/Time
CST
Temp
°C
App
Temp
°C
Dew
Point
°C
Rel
Hum
%
Delta-T
°C
Wind Press
QNH
hPa
Press
MSL
hPa
Rain since
9am
mm
Dir  Spd
km/h
Gust
km/h
Spd
kts
Gust
kts
19/08:00pm 12.6 8.2 10.5 87 1.1 WSW 24 33 13 18 1021.2 1021.2 0.0
19/07:30pm 12.6 8.3 10.7 88 1.0 WSW 24 30 13 16 1021.0 1021.0 0.0
19/07:00pm 12.6 7.0 10.1 85 1.3 WSW 30 39 16 21 1020.9 1020.9 0.0
19/06:30pm 13.1 8.5 9.7 80 1.7 W 24 39 13 21 1020.6 1020.6 0.0
19/06:00pm 13.0 7.9 9.3 78 1.9 WSW 26 37 14 20 1020.5 1020.5 0.0
19/05:30pm 13.8 8.6 8.8 72 2.5 W 26 33 14 18 1020.1 1020.1 0.0
19/05:00pm 14.0 8.7 8.4 69 2.8 W 26 35 14 19 1019.9 1019.9 0.0
19/04:30pm 14.7 9.4 8.4 66 3.2 W 26 35 14 19 1019.9 1019.9 0.0
19/04:00pm 15.0 10.3 9.4 69 2.9 W 24 33 13 18 1019.9 1019.9 0.0
19/03:30pm 14.5 8.8 8.5 67 3.0 WSW 28 33 15 18 1019.8 1019.8 0.0
19/03:00pm 15.6 10.2 8.1 61 3.8 WSW 26 33 14 18 1019.9 1019.9 0.0
19/02:30pm 15.4 10.2 7.4 59 4.0 WSW 24 30 13 16 1019.8 1019.8 0.0
19/02:00pm 15.4 10.4 8.2 62 3.6 WSW 24 30 13 16 1019.9 1019.9 0.0
19/01:30pm 15.7 10.5 7.2 57 4.2 WSW 24 32 13 17 1020.0 1020.0 0.0
19/01:00pm 15.0 10.2 7.5 61 3.7 WSW 22 30 12 16 1020.1 1020.1 0.0
19/12:30pm 14.3 9.2 7.8 65 3.2 WSW 24 32 13 17 1020.2 1020.2 0.0
19/12:00pm 15.5 10.4 7.8 60 3.8 W 24 30 13 16 1020.2 1020.2 0.0
19/11:30am 14.5 9.5 6.3 58 3.9 WSW 22 30 12 16 1020.2 1020.2 0.0
19/11:00am 15.0 10.0 6.6 57 4.1 WSW 22 30 12 16 1020.2 1020.2 0.0
19/10:30am 13.9 8.9 6.5 61 3.6 WSW 22 28 12 15 1020.1 1020.1 0.0
19/10:00am 12.8 9.3 7.3 69 2.7 SSW 15 24 8 13 1020.1 1020.1 0.0
19/09:30am 13.7 8.1 5.3 57 3.9 WSW 24 30 13 16 1019.9 1019.9 0.0
19/09:00am 13.5 9.3 7.5 67 2.9 SW 19 28 10 15 1019.7 1019.7 0.8
19/08:30am 13.4 9.1 7.2 66 3.0 SW 19 26 10 14 1019.4 1019.4 0.8
19/08:00am 12.4 8.1 6.9 69 2.6 SW 19 28 10 15 1019.1 1019.1 0.8
19/07:30am 11.8 8.1 6.5 70 2.5 WSW 15 20 8 11 1018.8 1018.8 0.8
19/07:00am 11.6 6.9 5.0 64 3.0 SSW 19 24 10 13 1018.4 1018.4 0.8
19/06:30am 11.2 6.4 4.9 65 2.9 SW 19 28 10 15 1018.1 1018.1 0.8
19/06:00am 11.3 5.5 4.3 62 3.1 SW 24 32 13 17 1017.9 1017.9 0.8
19/05:30am 10.9 5.2 5.0 67 2.7 SW 24 32 13 17 1017.7 1017.7 0.8
19/05:00am 11.3 6.5 5.6 68 2.6 SW 20 30 11 16 1017.4 1017.4 0.8
19/04:30am 11.1 5.5 5.2 67 2.7 SW 24 35 13 19 1017.2 1017.2 0.8
19/04:02am 11.3 5.2 6.8 74 2.1 SW 28 50 15 27 1017.0 1017.0 0.8
19/04:00am 11.4 5.7 6.7 73 2.2 SW 26 50 14 27 1016.9 1016.9 0.8
19/03:30am 11.0 6.4 5.5 69 2.5 SW 19 30 10 16 1017.0 1017.0 0.8
19/03:00am 10.4 5.4 4.5 67 2.6 SW 20 26 11 14 1017.0 1017.0 0.8
19/02:30am 10.5 4.7 4.4 66 2.7 SW 24 35 13 19 1017.0 1017.0 0.8
19/02:00am 10.5 5.9 6.6 77 1.8 WSW 20 26 11 14 1017.4 1017.4 0.8
19/01:30am 11.2 4.8 5.3 67 2.7 SW 28 39 15 21 1017.5 1017.5 0.8
19/01:00am 10.9 4.5 5.4 69 2.5 SSW 28 39 15 21 1017.7 1017.7 0.6
19/12:30am 10.9 5.3 5.2 68 2.6 SW 24 33 13 18 1017.8 1017.8 0.6
19/12:00am 10.9 4.8 6.6 75 2.0 SSW 28 37 15 20 1017.8 1017.8 0.6
 
Date/Time
CST
Temp
°C
App
Temp
°C
Dew
Point
°C
Rel
Hum
%
Delta-T
°C
Wind Press
QNH
hPa
Press
MSL
hPa
Rain since
9am
mm
Dir  Spd
km/h
Gust
km/h
Spd
kts
Gust
kts
18/11:30pm 10.9 4.8 6.6 75 2.0 WSW 28 37 15 20 1017.8 1017.8 0.6
18/11:00pm 10.5 4.7 6.3 75 2.0 SW 26 39 14 21 1017.9 1017.9 0.6
18/10:30pm 11.1 5.4 6.6 74 2.1 SW 26 37 14 20 1017.8 1017.8 0.6
18/10:00pm 10.7 4.6 6.6 76 1.9 SSW 28 35 15 19 1017.8 1017.8 0.6
18/09:30pm 11.7 5.0 5.8 67 2.7 SW 30 37 16 20 1017.6 1017.6 0.6
18/09:00pm 10.9 5.0 5.7 70 2.4 SW 26 39 14 21 1017.4 1017.4 0.6
18/08:45pm 11.6 5.3 5.9 68 2.7 SW 28 48 15 26 1017.5 1017.5 0.6
18/08:30pm 11.5 4.4 5.4 66 2.8 SW 32 44 17 24 1017.2 1017.2 0.6
18/08:00pm 11.9 4.8 6.2 68 2.7 SW 33 44 18 24 1016.8 1016.8 0.6
18/07:30pm 11.8 4.9 6.5 70 2.5 SW 32 44 17 24 1016.5 1016.5 0.6
18/07:00pm 11.4 4.9 6.7 73 2.2 WSW 30 43 16 23 1016.1 1016.1 0.6
18/06:30pm 11.6 4.7 7.1 74 2.2 WSW 33 48 18 26 1015.7 1015.7 0.6
18/06:00pm 11.4 4.8 7.9 79 1.7 WSW 32 46 17 25 1015.6 1015.6 0.6
18/05:30pm 10.9 4.0 7.2 78 1.8 SW 33 46 18 25 1015.4 1015.4 0.6
18/05:02pm 12.2 4.7 6.5 68 2.7 SW 35 59 19 32 1015.0 1015.0 0.0
18/05:00pm 12.5 5.5 6.8 68 2.7 SW 33 48 18 26 1014.9 1014.9 0.0
18/04:30pm 14.6 6.6 5.9 56 4.2 WSW 37 48 20 26 1014.5 1014.5 0.0
18/04:00pm 14.6 7.1 6.2 57 4.0 WSW 35 46 19 25 1014.2 1014.2 0.0
18/03:30pm 14.7 6.6 5.2 53 4.5 WSW 37 54 20 29 1014.0 1014.0 0.0
18/03:00pm 14.4 6.8 5.7 56 4.1 WSW 35 46 19 25 1013.9 1013.9 0.0
18/02:30pm 14.5 6.4 5.3 54 4.3 WSW 37 48 20 26 1013.8 1013.8 0.0
18/02:00pm 15.3 7.5 5.0 50 4.9 WSW 35 46 19 25 1013.8 1013.8 0.0
18/01:30pm 15.7 8.2 6.4 54 4.5 WSW 35 43 19 23 1013.7 1013.7 0.0
18/01:00pm 15.5 8.0 6.2 54 4.5 WSW 35 48 19 26 1013.7 1013.7 0.0
18/12:30pm 15.9 8.4 6.3 53 4.7 WSW 35 48 19 26 1013.9 1013.9 0.0
18/12:00pm 15.2 8.1 6.2 55 4.3 WSW 33 46 18 25 1013.8 1013.8 0.0
18/11:30am 14.1 6.6 7.9 66 3.1 WSW 37 54 20 29 1014.0 1014.0 0.0
18/11:00am 14.9 7.9 7.0 59 3.9 WSW 33 43 18 23 1014.0 1014.0 0.0
18/10:30am 14.8 8.0 7.6 62 3.6 WSW 33 44 18 24 1013.9 1013.9 0.0
18/10:00am 14.5 7.2 7.1 61 3.6 WSW 35 44 19 24 1013.6 1013.6 0.0
18/09:30am 14.6 7.9 8.3 66 3.2 WSW 33 43 18 23 1013.4 1013.4 0.0
18/09:00am 13.7 7.2 8.3 70 2.7 W 32 43 17 23 1013.3 1013.3 0.2
18/08:30am 12.6 5.9 8.3 75 2.1 WSW 33 46 18 25 1013.2 1013.2 0.2
18/08:00am 11.5 5.7 9.6 88 1.0 WSW 30 41 16 22 1013.0 1013.0 0.2
18/07:45am 13.3 7.4 9.0 75 2.2 W 30 48 16 26 1012.8 1012.8 0.0
18/07:30am 12.9 7.2 8.4 74 2.2 W 28 37 15 20 1012.6 1012.6 0.0
18/07:00am 12.5 6.2 8.8 78 1.9 W 32 43 17 23 1012.5 1012.5 0.0
18/06:30am 13.3 7.0 7.3 67 2.9 W 30 41 16 22 1012.2 1012.2 0.0
18/06:00am 13.0 7.0 7.2 68 2.8 W 28 37 15 20 1012.0 1012.0 0.0
18/05:30am 12.7 7.2 7.6 71 2.5 W 26 35 14 19 1011.8 1011.8 0.0
18/05:00am 12.8 6.7 6.8 67 2.9 W 28 37 15 20 1011.7 1011.7 0.0
18/04:30am 12.6 6.9 6.6 67 2.9 W 26 35 14 19 1011.6 1011.6 0.0
18/04:00am 12.6 6.5 6.4 66 3.0 W 28 35 15 19 1011.7 1011.7 0.0
18/03:30am 11.9 6.8 5.8 66 2.9 WSW 22 30 12 16 1011.6 1011.6 0.0
18/03:00am 12.1 6.7 6.2 67 2.8 WSW 24 32 13 17 1011.4 1011.3 0.0
18/02:30am 12.1 5.8 5.5 64 3.1 WSW 28 37 15 20 1011.8 1011.8 0.0
18/02:00am 12.1 5.8 5.7 65 3.0 WSW 28 37 15 20 1011.7 1011.7 0.0
18/01:30am 12.7 6.5 8.0 73 2.3 WSW 30 41 16 22 1011.3 1011.2 0.0
18/01:00am 12.9 7.9 8.2 73 2.3 SW 24 32 13 17 1011.0 1010.9 0.0
18/12:30am 13.1 8.3 8.8 75 2.2 SW 24 32 13 17 1010.7 1010.6 0.0
18/12:00am 13.2 7.0 9.3 77 2.0 SW 32 41 17 22 1010.6 1010.5 0.0
 
Date/Time
CST
Temp
°C
App
Temp
°C
Dew
Point
°C
Rel
Hum
%
Delta-T
°C
Wind Press
QNH
hPa
Press
MSL
hPa
Rain since
9am
mm
Dir  Spd
km/h
Gust
km/h
Spd
kts
Gust
kts
17/11:30pm 13.5 8.7 10.3 81 1.7 SW 26 39 14 21 1010.5 1010.4 0.0
17/11:00pm 13.8 8.4 11.0 83 1.5 SW 30 43 16 23 1010.2 1010.1 0.0
17/10:30pm 14.3 9.5 11.8 85 1.3 SW 28 39 15 21 1009.9 1009.8 0.0
17/10:00pm 14.7 10.3 11.7 82 1.6 WSW 26 37 14 20 1009.8 1009.7 0.0
17/09:30pm 15.0 10.1 11.2 78 2.0 WSW 28 37 15 20 1009.3 1009.3 0.0
17/09:00pm 15.3 10.2 10.7 74 2.4 W 28 33 15 18 1009.0 1009.0 0.0
17/08:30pm 15.8 11.5 10.6 71 2.8 W 24 32 13 17 1008.8 1008.8 0.0
17/08:00pm 16.0 11.7 9.4 65 3.4 WNW 22 30 12 16 1008.7 1008.7 0.0
17/07:30pm 15.9 11.9 9.1 64 3.5 NW 20 26 11 14 1008.5 1008.5 0.0
17/07:00pm 16.7 11.7 7.9 56 4.4 NW 24 28 13 15 1008.4 1008.4 0.0
17/06:30pm 17.1 12.5 6.6 50 5.2 NNW 20 28 11 15 1008.1 1008.1 0.0
17/06:00pm 18.1 13.0 6.0 45 6.0 NW 22 28 12 15 1008.3 1008.3 0.0
17/05:30pm 18.3 13.0 6.8 47 5.8 NW 24 30 13 16 1008.4 1008.4 0.0
17/05:00pm 19.2 12.7 6.3 43 6.4 NW 30 35 16 19 1008.5 1008.5 0.0
17/04:30pm 19.8 13.9 5.8 40 6.9 NW 26 33 14 18 1008.3 1008.3 0.0
17/04:00pm 19.8 14.4 6.2 41 6.8 NNW 24 37 13 20 1008.4 1008.4 0.0
17/03:30pm 20.0 15.5 7.1 43 6.6 NNW 20 32 11 17 1008.8 1008.8 0.0
17/03:00pm 20.1 13.9 4.2 35 7.7 NNW 26 35 14 19 1009.1 1009.1 0.0
17/02:30pm 20.0 13.9 4.9 37 7.4 NNW 26 33 14 18 1009.8 1009.7 0.0
17/02:00pm 20.0 13.9 4.9 37 7.4 NNW 26 37 14 20 1010.1 1010.0 0.0
17/01:30pm 20.1 14.6 5.7 39 7.1 NNW 24 37 13 20 1010.7 1010.6 0.0
17/01:00pm 19.6 13.3 5.6 40 6.9 NNW 28 43 15 23 1011.5 1011.5 0.0
17/12:30pm 18.8 11.8 4.2 38 7.0 NNW 30 52 16 28 1012.1 1012.1 0.0
17/12:28pm 18.7 11.6 3.3 36 7.2 NNW 30 52 16 28 1012.2 1012.2 0.0
17/12:00pm 17.8 10.4 4.0 40 6.5 NNW 32 44 17 24 1012.7 1012.7 0.0
17/11:30am 17.0 9.2 3.0 39 6.4 N 33 52 18 28 1013.5 1013.5 0.0
17/11:00am 16.5 9.0 4.2 44 5.8 NNW 33 48 18 26 1014.0 1014.0 0.0
17/10:30am 15.1 6.9 4.8 50 4.8 N 37 46 20 25 1014.5 1014.5 0.0
17/10:00am 14.8 6.5 4.2 49 4.9 N 37 50 20 27 1014.9 1014.9 0.0
17/09:30am 14.1 5.7 3.8 50 4.7 N 37 52 20 28 1015.2 1015.2 0.0
17/09:00am 13.3 5.9 5.0 57 3.8 N 33 46 18 25 1015.7 1015.7 0.0
17/08:30am 12.2 6.2 5.4 63 3.2 N 26 35 14 19 1016.0 1016.0 0.0
17/08:00am 11.3 4.6 5.4 67 2.7 N 30 37 16 20 1016.0 1016.0 0.0
17/07:30am 10.6 4.9 4.7 67 2.7 N 24 32 13 17 1016.2 1016.2 0.0
17/07:00am 9.6 3.9 4.8 72 2.2 N 24 32 13 17 1016.2 1016.2 0.0
17/06:30am 9.4 4.5 5.0 74 2.0 N 20 28 11 15 1016.3 1016.3 0.0
17/06:00am 9.1 3.0 4.7 74 2.0 N 26 35 14 19 1016.3 1016.3 0.0
17/05:30am 9.2 4.4 5.4 77 1.7 N 20 28 11 15 1016.2 1016.2 0.0
17/05:00am 8.7 4.5 5.8 82 1.3 NNE 17 24 9 13 1016.4 1016.4 0.0
17/04:30am 7.7 3.5 5.8 88 0.9 NNE 17 24 9 13 1016.5 1016.5 0.0
17/04:00am 6.5 2.9 5.0 90 0.7 NNE 13 17 7 9 1016.5 1016.5 0.0
17/03:30am 6.6 3.5 5.4 92 0.5 NNE 11 17 6 9 1016.7 1016.7 0.0
17/03:00am 6.2 3.3 4.8 91 0.6 NNE 9 13 5 7 1017.4 1017.4 0.0
17/02:30am 6.2 2.6 4.8 91 0.6 NE 13 17 7 9 1017.7 1017.7 0.0
17/02:00am 6.4 2.8 5.0 91 0.6 NE 13 19 7 10 1018.2 1018.2 0.0
17/01:30am 6.5 2.9 5.1 91 0.6 NE 13 19 7 10 1018.8 1018.8 0.0
17/01:00am 6.0 2.3 4.3 89 0.7 NE 13 17 7 9 1019.3 1019.3 0.0
17/12:30am 6.3 1.9 4.5 88 0.8 NE 17 20 9 11 1019.8 1019.8 0.0
17/12:00am 6.5 2.4 4.3 86 0.9 NE 15 20 8 11 1020.3 1020.3 0.0
 
Date/Time
CST
Temp
°C
App
Temp
°C
Dew
Point
°C
Rel
Hum
%
Delta-T
°C
Wind Press
QNH
hPa
Press
MSL
hPa
Rain since
9am
mm
Dir  Spd
km/h
Gust
km/h
Spd
kts
Gust
kts
16/11:30pm 6.9 3.2 4.7 86 1.0 NE 13 17 7 9 1021.0 1021.0 0.0
16/11:00pm 6.9 3.5 3.9 81 1.3 NE 11 15 6 8 1021.4 1021.4 0.0
16/10:30pm 7.6 4.6 4.0 78 1.5 NE 9 11 5 6 1021.7 1021.7 0.0
16/10:00pm 8.9 6.0 4.7 75 1.9 NE 9 13 5 7 1022.0 1022.0 0.0
16/09:30pm 9.7 7.3 5.3 74 2.0 NNE 7 9 4 5 1022.3 1022.3 0.0
16/09:00pm 10.8 8.5 5.6 70 2.4 NNW 7 11 4 6 1022.6 1022.6 0.0
16/08:30pm 11.3 8.7 6.2 71 2.4 NNW 9 13 5 7 1022.7 1022.7 0.0

Other Formats:

Comma delimited format used in spreadsheet applications
http://www.bom.gov.au/fwo/IDS60801/IDS60801.95649.axf

JavaScript Object Notation format (JSON) in row-major order
http://www.bom.gov.au/fwo/IDS60801/IDS60801.95649.json